Airfield :
LOGIN :

Register | Disclaimer

   EN    FR    IT 

 










Legend :    VFR   Marginal VFR   IFR   Intensive IFR   Very Intensive IFR
Visi :
Ceiling :
>= 8 km
>= 3000ft
5 to 8 km
1000 to 3000 ft
1500m to 5 km
500 to 1000 ft
800 to 1500m
200 to 500 ft
< 800m
< 200 ft
Symbols :   Thunderstorms  Fog  Heavy snow  Heavy precipitations  Wind > 20 kt
SIGMETs :     Misc.  Thunderstorms  Icing  Turbulence  Mountain Waves  Volcanic Ashes






- Airport Elevation : 140 ft
- IATA code : NYO


ESKN - Skavsta

CURRENT METAR :
  • 210020Z 17013KT 140V200 9999 OVC007 05/04 Q0995 R26/290195

EXPIRED METARs :
  • 202350Z 17014KT 9999 BKN008 05/04 Q0996 R26/290195
  • 202320Z 17014KT 9999 BKN007 04/04 Q0996 R26/290195
  • 202250Z 18017G28KT 9999 BKN007 04/03 Q0997 R26/290195
  • 202220Z 17014KT 140V200 9999 BKN008 04/03 Q0997 R26/290195

TAF TAF ESKN
Valid from the 21 at 00:00 until the 22 at 00:00 UTC


202330Z 2100/2124 17016G26KT 9999 BKN007
TEMPO 2100/2105 4000 -RADZ BKN013
BECMG 2105/2107 27012G22KT NSC



MET'MAP, your aeronautical weather chart ! - Copyright ORBIFLY December 2007 - Disclaimer

ORBIFLY MET'MAP TEAM :

Programming & Development : Alexandra Zaïnal
Concept & original design : Baudouin d'Aumeries
Assistance for programming : Marc-Olivier Méhu
Technical & hardware support : Manuel Goepfert

Contact : metmap@orbifly.com




SOURCES & CREDITS :

   NOAA